createdAt,value
2023-10-09T00:00:37.219Z,81.20
2023-10-09T00:03:07.858Z,81.20
2023-10-09T00:05:47.701Z,81.30
2023-10-09T00:08:20.656Z,81.30
2023-10-09T00:10:54.551Z,81.20
2023-10-09T00:13:29.481Z,81.30
2023-10-09T00:16:01.597Z,81.30
2023-10-09T00:18:31.334Z,81.30
2023-10-09T00:21:12.918Z,81.20
2023-10-09T00:23:41.678Z,81.20
2023-10-09T00:26:20.217Z,81.20
2023-10-09T00:28:48.915Z,81.30
2023-10-09T00:31:17.717Z,81.30
2023-10-09T00:33:46.097Z,81.40
2023-10-09T00:36:18.947Z,81.40
2023-10-09T00:38:52.460Z,81.30
2023-10-09T00:41:26.224Z,81.30
2023-10-09T00:43:54.664Z,81.40
2023-10-09T00:46:26.516Z,81.30
2023-10-09T00:48:56.888Z,81.30
2023-10-09T00:51:28.467Z,81.30
2023-10-09T00:53:59.237Z,81.40
2023-10-09T00:56:40.312Z,81.40
2023-10-09T00:59:13.007Z,81.40
2023-10-09T01:01:42.522Z,81.40
2023-10-09T01:04:13.374Z,81.40
2023-10-09T01:06:45.566Z,81.50
2023-10-09T01:09:15.525Z,81.50
2023-10-09T01:11:52.823Z,81.50
2023-10-09T01:14:22.617Z,81.50
2023-10-09T01:16:55.081Z,81.60
2023-10-09T01:19:25.176Z,81.50
2023-10-09T01:21:55.184Z,81.60
2023-10-09T01:24:27.841Z,81.60
2023-10-09T01:26:58.743Z,81.60
2023-10-09T01:29:28.896Z,81.60
2023-10-09T01:31:58.028Z,81.60
2023-10-09T01:34:33.401Z,81.50
2023-10-09T01:37:02.976Z,81.50
2023-10-09T01:39:32.596Z,81.60
2023-10-09T01:42:00.861Z,81.60
2023-10-09T01:44:31.825Z,81.60
2023-10-09T01:47:00.051Z,81.50
2023-10-09T01:49:33.946Z,81.50
2023-10-09T01:52:08.258Z,81.60
2023-10-09T01:54:41.824Z,81.50
2023-10-09T01:57:13.692Z,81.50
2023-10-09T01:59:45.124Z,81.60
2023-10-09T02:02:27.063Z,81.60
2023-10-09T02:05:05.297Z,81.60
2023-10-09T02:07:41.793Z,81.60
2023-10-09T02:10:22.905Z,81.60
2023-10-09T02:12:55.086Z,81.60
2023-10-09T02:15:42.327Z,81.60
2023-10-09T02:18:19.664Z,81.60
2023-10-09T02:20:51.730Z,81.50
2023-10-09T02:23:22.180Z,81.60
2023-10-09T02:25:54.604Z,81.60
2023-10-09T02:28:22.727Z,81.60
2023-10-09T02:30:51.213Z,81.70
2023-10-09T02:33:28.863Z,81.70
2023-10-09T02:36:00.581Z,81.70
2023-10-09T02:38:42.639Z,81.70
2023-10-09T02:41:23.829Z,81.80
2023-10-09T02:43:56.460Z,81.70
2023-10-09T02:46:31.287Z,81.70
2023-10-09T02:48:59.795Z,81.70
2023-10-09T02:51:37.606Z,81.70
2023-10-09T02:54:25.922Z,81.70
2023-10-09T02:56:58.535Z,81.60
2023-10-09T02:59:26.747Z,81.70
2023-10-09T03:01:55.061Z,81.70
2023-10-09T03:04:25.579Z,81.80
2023-10-09T03:06:58.421Z,81.70
2023-10-09T03:09:29.395Z,81.70
2023-10-09T03:12:03.849Z,81.80
2023-10-09T03:14:32.680Z,81.80
2023-10-09T03:17:03.828Z,81.80
2023-10-09T03:19:34.846Z,81.80
2023-10-09T03:22:03.087Z,81.80
2023-10-09T03:24:32.132Z,81.80
2023-10-09T03:27:01.873Z,81.80
2023-10-09T03:29:33.064Z,81.80
2023-10-09T03:32:04.788Z,81.80
2023-10-09T03:34:33.201Z,81.80
2023-10-09T03:37:06.124Z,81.80
2023-10-09T03:39:39.909Z,81.80
2023-10-09T03:42:13.034Z,81.80
2023-10-09T03:44:44.818Z,81.70
2023-10-09T03:47:13.346Z,81.70
2023-10-09T03:49:41.508Z,81.70
2023-10-09T03:52:10.779Z,81.80
2023-10-09T03:54:39.531Z,81.90
2023-10-09T03:57:09.187Z,81.90
2023-10-09T03:59:38.669Z,81.90
2023-10-09T04:02:06.852Z,81.90
2023-10-09T04:04:38.076Z,82.00
2023-10-09T04:07:07.965Z,81.90
2023-10-09T04:09:40.954Z,81.90
2023-10-09T04:12:23.073Z,82.00
2023-10-09T04:14:56.011Z,81.90
2023-10-09T04:17:36.864Z,81.90
2023-10-09T04:20:23.246Z,81.90
2023-10-09T04:23:01.341Z,81.90
2023-10-09T04:25:33.344Z,82.00
2023-10-09T04:28:10.817Z,82.00
2023-10-09T04:30:44.342Z,82.00
2023-10-09T04:33:29.217Z,82.00
2023-10-09T04:36:15.731Z,82.00
2023-10-09T04:38:56.841Z,81.90
2023-10-09T04:41:33.834Z,81.90
2023-10-09T04:44:20.532Z,81.90
2023-10-09T04:47:16.136Z,81.90
2023-10-09T04:49:51.171Z,81.90
2023-10-09T04:52:41.449Z,82.00
2023-10-09T04:55:21.087Z,82.00
2023-10-09T04:58:03.018Z,82.10
2023-10-09T05:00:52.716Z,82.10
2023-10-09T05:03:29.622Z,82.10
2023-10-09T05:06:01.005Z,82.10
2023-10-09T05:08:31.237Z,82.10
2023-10-09T05:14:12.740Z,82.10
2023-10-09T05:16:55.464Z,82.00
2023-10-09T05:19:50.033Z,81.90
2023-10-09T05:22:31.142Z,81.90
2023-10-09T05:25:00.841Z,82.00
2023-10-09T05:27:47.140Z,82.00
2023-10-09T05:30:25.632Z,82.00
2023-10-09T05:33:00.745Z,82.00
2023-10-09T05:36:00.690Z,82.00
2023-10-09T05:38:31.917Z,82.00
2023-10-09T05:41:19.231Z,82.00
2023-10-09T05:44:06.191Z,81.90
2023-10-09T05:46:37.891Z,81.90
2023-10-09T05:49:21.153Z,81.90
2023-10-09T05:51:54.741Z,81.90
2023-10-09T05:54:44.945Z,81.90
2023-10-09T05:57:30.360Z,82.00
2023-10-09T06:00:17.348Z,82.00
2023-10-09T06:03:03.035Z,81.90
2023-10-09T06:05:52.740Z,82.00
2023-10-09T06:08:26.201Z,82.00
2023-10-09T06:11:07.538Z,82.10
2023-10-09T06:13:46.991Z,82.00
2023-10-09T06:16:42.652Z,82.00
2023-10-09T06:19:13.869Z,82.00
2023-10-09T06:21:57.738Z,82.00
2023-10-09T06:24:27.302Z,82.00
2023-10-09T06:27:25.331Z,82.00
2023-10-09T06:29:52.873Z,82.00
2023-10-09T06:32:35.056Z,81.90
2023-10-09T06:35:19.672Z,81.90
2023-10-09T06:38:07.097Z,81.90
2023-10-09T06:40:53.348Z,81.90
2023-10-09T06:43:29.057Z,82.00
2023-10-09T06:45:59.387Z,82.00
2023-10-09T06:48:45.082Z,82.10
2023-10-09T06:51:16.956Z,82.10
2023-10-09T06:54:04.749Z,82.00
2023-10-09T06:56:46.810Z,82.00
2023-10-09T06:59:22.781Z,82.00
2023-10-09T07:02:12.448Z,82.00
2023-10-09T07:04:49.494Z,82.00
2023-10-09T07:07:22.274Z,82.00
2023-10-09T07:10:05.695Z,82.00
2023-10-09T07:12:35.044Z,82.00
2023-10-09T07:15:02.833Z,82.10
2023-10-09T07:17:44.859Z,82.10
2023-10-09T07:20:17.875Z,82.10
2023-10-09T07:23:16.959Z,82.00
2023-10-09T07:25:59.941Z,82.10
2023-10-09T07:28:44.008Z,82.10
2023-10-09T07:31:25.436Z,82.10
2023-10-09T07:33:58.133Z,82.10
2023-10-09T07:36:38.863Z,82.00
2023-10-09T07:39:19.637Z,82.00
2023-10-09T07:42:03.100Z,82.10
2023-10-09T07:44:38.952Z,82.10
2023-10-09T07:47:18.577Z,82.10
2023-10-09T07:49:53.542Z,82.10
2023-10-09T07:52:23.981Z,82.20
2023-10-09T07:54:54.620Z,82.30
2023-10-09T07:57:30.742Z,82.30
2023-10-09T08:00:13.669Z,82.30
2023-10-09T08:02:42.639Z,82.30
2023-10-09T08:05:21.016Z,82.30
2023-10-09T08:08:04.919Z,82.30
2023-10-09T08:10:53.868Z,82.30
2023-10-09T08:16:23.986Z,82.20
2023-10-09T08:18:52.496Z,82.20
2023-10-09T08:21:43.258Z,82.20
2023-10-09T08:24:32.079Z,82.10
2023-10-09T08:27:14.207Z,82.10
2023-10-09T08:29:51.943Z,82.20
2023-10-09T08:35:30.354Z,82.20
2023-10-09T08:37:59.842Z,82.10
2023-10-09T08:40:38.446Z,82.10
2023-10-09T08:43:11.172Z,82.10
2023-10-09T08:45:41.892Z,82.10
2023-10-09T08:48:16.722Z,82.10
2023-10-09T08:50:45.729Z,82.10
2023-10-09T08:53:14.431Z,82.10
2023-10-09T08:55:43.225Z,82.20
2023-10-09T08:58:17.420Z,82.20
2023-10-09T09:00:48.068Z,82.20
2023-10-09T09:03:18.152Z,82.30
2023-10-09T09:05:48.477Z,82.30
2023-10-09T09:08:29.786Z,82.40
2023-10-09T09:11:12.841Z,82.40
2023-10-09T09:13:43.608Z,82.50
2023-10-09T09:16:23.097Z,82.40
2023-10-09T09:19:02.047Z,82.50
2023-10-09T09:21:39.734Z,82.50
2023-10-09T09:24:17.045Z,82.50
2023-10-09T09:26:48.404Z,82.50
2023-10-09T09:29:19.104Z,82.50
2023-10-09T09:31:59.088Z,82.60
2023-10-09T09:34:30.509Z,82.60
2023-10-09T09:37:00.519Z,82.60
2023-10-09T09:39:38.700Z,82.50
2023-10-09T09:42:15.435Z,82.50
2023-10-09T09:44:45.838Z,82.50
2023-10-09T09:47:25.151Z,82.60
2023-10-09T09:49:54.670Z,82.60
2023-10-09T09:52:26.152Z,82.60
2023-10-09T09:54:54.427Z,82.50
2023-10-09T09:57:27.282Z,82.50
2023-10-09T09:59:58.029Z,82.40
2023-10-09T10:02:34.800Z,82.40
2023-10-09T10:05:06.884Z,82.40
2023-10-09T10:07:44.564Z,82.30
2023-10-09T10:10:40.740Z,82.30
2023-10-09T10:13:16.374Z,82.30
2023-10-09T10:16:10.006Z,82.30
2023-10-09T10:19:00.818Z,82.30
2023-10-09T10:21:39.896Z,82.30
2023-10-09T10:24:29.657Z,82.30
2023-10-09T10:30:32.654Z,82.30
2023-10-09T10:33:10.573Z,82.40
2023-10-09T10:35:47.008Z,82.30
2023-10-09T10:38:40.413Z,82.40
2023-10-09T10:41:17.764Z,82.40
2023-10-09T10:44:02.370Z,82.40
2023-10-09T10:46:39.061Z,82.40
2023-10-09T10:49:21.910Z,82.40
2023-10-09T10:52:02.192Z,82.50
2023-10-09T10:54:44.362Z,82.40
2023-10-09T10:57:54.502Z,82.50
2023-10-09T11:03:30.852Z,82.50
2023-10-09T11:06:14.261Z,82.50
2023-10-09T11:08:55.877Z,82.50
2023-10-09T11:11:24.689Z,82.50
2023-10-09T11:13:59.016Z,82.50
2023-10-09T11:16:44.310Z,82.60
2023-10-09T11:19:30.280Z,82.50
2023-10-09T11:22:21.731Z,82.60
2023-10-09T11:25:09.218Z,82.60
2023-10-09T11:27:41.004Z,82.60
2023-10-09T11:30:11.957Z,82.60
2023-10-09T11:32:40.958Z,82.60
2023-10-09T11:35:12.640Z,82.60
2023-10-09T11:40:48.934Z,82.60
2023-10-09T11:43:17.185Z,82.60
2023-10-09T11:45:55.845Z,82.60
2023-10-09T11:48:27.186Z,82.60
2023-10-09T11:50:57.908Z,82.60
2023-10-09T11:53:37.691Z,82.60
2023-10-09T11:56:10.823Z,82.60
2023-10-09T11:58:41.875Z,82.60
2023-10-09T12:01:18.577Z,82.60
2023-10-09T12:03:50.857Z,82.60
2023-10-09T12:06:20.272Z,82.60
2023-10-09T12:08:49.103Z,82.60
2023-10-09T12:11:24.980Z,82.70
2023-10-09T12:13:57.533Z,82.70
2023-10-09T12:16:29.582Z,82.70
2023-10-09T12:18:58.285Z,82.70
2023-10-09T12:21:29.480Z,82.70
2023-10-09T12:24:01.959Z,82.70
2023-10-09T12:26:36.276Z,82.70
2023-10-09T12:29:05.210Z,82.70
2023-10-09T12:31:35.417Z,82.70
2023-10-09T12:34:03.979Z,82.70
2023-10-09T12:36:38.445Z,82.70
2023-10-09T12:39:07.170Z,82.70
2023-10-09T12:41:42.594Z,82.70
2023-10-09T12:44:20.255Z,82.70
2023-10-09T12:46:54.218Z,82.70
2023-10-09T12:49:26.407Z,82.70
2023-10-09T12:51:54.705Z,82.70
2023-10-09T12:54:28.223Z,82.70
2023-10-09T12:56:59.135Z,82.80
2023-10-09T12:59:27.474Z,82.80
2023-10-09T13:01:59.243Z,82.70
2023-10-09T13:04:33.449Z,82.70
2023-10-09T13:07:05.725Z,82.80
2023-10-09T13:09:37.109Z,82.80
2023-10-09T13:12:10.615Z,82.80
2023-10-09T13:14:38.757Z,82.80
2023-10-09T13:17:11.434Z,82.80
2023-10-09T13:19:39.999Z,82.80
2023-10-09T13:22:14.236Z,82.80
2023-10-09T13:24:43.095Z,82.80
2023-10-09T13:27:12.629Z,82.80
2023-10-09T13:29:44.550Z,82.80
2023-10-09T13:32:16.104Z,82.80
2023-10-09T13:35:08.692Z,82.80
2023-10-09T13:37:38.773Z,82.80
2023-10-09T13:40:11.470Z,82.80
2023-10-09T13:42:40.998Z,82.80
2023-10-09T13:45:17.132Z,82.90
2023-10-09T13:47:46.213Z,82.80
2023-10-09T13:50:14.691Z,82.90
2023-10-09T13:52:42.914Z,82.80
2023-10-09T13:55:17.309Z,82.90
2023-10-09T13:57:47.347Z,82.90
2023-10-09T14:00:20.294Z,82.90
2023-10-09T14:02:48.466Z,82.90
2023-10-09T14:05:17.258Z,82.90
2023-10-09T14:07:45.513Z,82.90
2023-10-09T14:10:19.442Z,82.90
2023-10-09T14:12:55.129Z,82.90
2023-10-09T14:15:23.829Z,82.90
2023-10-09T14:17:57.068Z,82.90
2023-10-09T14:20:32.058Z,82.90
2023-10-09T14:23:07.549Z,82.90
2023-10-09T14:25:38.494Z,82.90
2023-10-09T14:28:09.201Z,82.90
2023-10-09T14:30:43.073Z,82.90
2023-10-09T14:33:14.536Z,82.90
2023-10-09T14:35:43.126Z,82.90
2023-10-09T14:38:13.822Z,82.90
2023-10-09T14:40:51.291Z,82.90
2023-10-09T14:43:28.922Z,83.00
2023-10-09T14:45:57.063Z,83.00
2023-10-09T14:48:28.206Z,83.00
2023-10-09T14:50:59.125Z,83.00
2023-10-09T14:53:28.196Z,83.00
2023-10-09T14:55:57.056Z,83.00
2023-10-09T14:58:26.885Z,83.00
2023-10-09T15:00:55.243Z,83.00
2023-10-09T15:03:24.064Z,83.00
2023-10-09T15:05:52.332Z,83.00
2023-10-09T15:08:20.479Z,83.00
2023-10-09T15:10:49.662Z,83.10
2023-10-09T15:13:18.474Z,83.10
2023-10-09T15:15:56.195Z,83.00
2023-10-09T15:18:24.556Z,83.10
2023-10-09T15:20:53.384Z,83.00
2023-10-09T15:23:22.201Z,83.10
2023-10-09T15:25:53.302Z,83.10
2023-10-09T15:28:21.765Z,83.10
2023-10-09T15:30:51.721Z,83.10
2023-10-09T15:33:36.186Z,83.10
2023-10-09T15:36:13.091Z,83.10
2023-10-09T15:38:41.228Z,83.10
2023-10-09T15:41:09.480Z,83.10
2023-10-09T15:43:38.429Z,83.10
2023-10-09T15:46:09.678Z,83.10
2023-10-09T15:48:38.586Z,83.10
2023-10-09T15:51:10.692Z,83.10
2023-10-09T15:53:39.539Z,83.20
2023-10-09T15:56:08.634Z,83.20
2023-10-09T15:58:36.872Z,83.20
2023-10-09T16:01:05.307Z,83.20
2023-10-09T16:03:35.017Z,83.10
2023-10-09T16:06:03.362Z,83.20
2023-10-09T16:08:32.880Z,83.20
2023-10-09T16:11:01.698Z,83.20
2023-10-09T16:13:29.874Z,83.20
2023-10-09T16:16:00.889Z,83.20
2023-10-09T16:18:29.700Z,83.20
2023-10-09T16:21:00.676Z,83.20
2023-10-09T16:23:29.319Z,83.20
2023-10-09T16:25:58.164Z,83.20
2023-10-09T16:28:27.800Z,83.30
2023-10-09T16:30:57.518Z,83.30
2023-10-09T16:33:27.194Z,83.30
2023-10-09T16:35:57.601Z,83.30
2023-10-09T16:38:27.581Z,83.30
2023-10-09T16:40:56.415Z,83.30
2023-10-09T16:43:27.393Z,83.30
2023-10-09T16:45:58.304Z,83.30
2023-10-09T16:48:28.922Z,83.30
2023-10-09T16:51:06.245Z,83.30
2023-10-09T16:53:39.853Z,83.30
2023-10-09T16:56:12.150Z,83.30
2023-10-09T16:58:40.656Z,83.30
2023-10-09T17:01:11.870Z,83.30
2023-10-09T17:03:43.576Z,83.30
2023-10-09T17:06:12.457Z,83.30
2023-10-09T17:08:43.550Z,83.30
2023-10-09T17:11:14.128Z,83.30
2023-10-09T17:13:46.092Z,83.50
2023-10-09T17:16:18.407Z,83.50
2023-10-09T17:18:47.780Z,83.50
2023-10-09T17:21:15.886Z,83.50
2023-10-09T17:23:46.378Z,83.50
2023-10-09T17:26:16.033Z,83.50
2023-10-09T17:28:44.815Z,83.50
2023-10-09T17:31:14.090Z,83.50
2023-10-09T17:33:44.652Z,83.50
2023-10-09T17:36:13.761Z,83.50
2023-10-09T17:38:43.436Z,83.50
2023-10-09T17:41:12.992Z,83.50
2023-10-09T17:43:41.317Z,83.50
2023-10-09T17:46:13.154Z,83.50
2023-10-09T17:48:42.545Z,83.50
2023-10-09T17:51:10.938Z,83.50
2023-10-09T17:53:40.038Z,83.50
2023-10-09T17:56:09.269Z,83.50
2023-10-09T17:58:38.892Z,83.50
2023-10-09T18:01:08.260Z,83.50
2023-10-09T18:03:41.766Z,83.50
2023-10-09T18:06:13.848Z,83.50
2023-10-09T18:08:42.089Z,83.50
2023-10-09T18:11:10.276Z,83.50
2023-10-09T18:13:39.867Z,83.50
2023-10-09T18:16:12.865Z,83.50
2023-10-09T18:18:42.057Z,83.50
2023-10-09T18:21:10.384Z,83.50
2023-10-09T18:23:45.464Z,83.50
2023-10-09T18:26:15.170Z,83.50
2023-10-09T18:28:46.261Z,83.50
2023-10-09T18:31:15.075Z,83.50
2023-10-09T18:33:43.463Z,83.50
2023-10-09T18:36:33.143Z,83.50
2023-10-09T18:39:01.286Z,83.70
2023-10-09T18:41:29.606Z,83.50
2023-10-09T18:44:01.996Z,83.50
2023-10-09T18:46:30.274Z,83.70
2023-10-09T18:49:02.366Z,83.70
2023-10-09T18:51:31.763Z,83.70
2023-10-09T18:54:01.881Z,83.70
2023-10-09T18:56:32.190Z,83.70
2023-10-09T18:59:02.059Z,83.70
2023-10-09T19:01:30.399Z,83.70
2023-10-09T19:04:00.526Z,83.70
2023-10-09T19:06:29.734Z,83.70
2023-10-09T19:09:00.712Z,83.70
2023-10-09T19:11:30.820Z,83.70
2023-10-09T19:13:59.008Z,83.70
2023-10-09T19:16:30.056Z,83.70
2023-10-09T19:19:05.688Z,83.70
2023-10-09T19:21:35.974Z,83.70
2023-10-09T19:24:06.965Z,83.70
2023-10-09T19:26:36.494Z,83.70
2023-10-09T19:29:04.674Z,83.70
2023-10-09T19:31:34.262Z,83.70
2023-10-09T19:34:02.354Z,83.70
2023-10-09T19:36:30.453Z,83.70
2023-10-09T19:39:01.359Z,83.70
2023-10-09T19:41:37.250Z,83.70
2023-10-09T19:44:06.422Z,83.70
2023-10-09T19:46:39.316Z,83.70
2023-10-09T19:49:07.631Z,83.70
2023-10-09T19:51:35.837Z,83.70
2023-10-09T19:54:04.882Z,83.70
2023-10-09T19:56:33.286Z,83.90
2023-10-09T19:59:01.556Z,83.70
2023-10-09T20:01:30.853Z,83.70
2023-10-09T20:04:00.483Z,83.90
2023-10-09T20:06:31.890Z,83.70
2023-10-09T20:09:00.400Z,83.70
2023-10-09T20:11:28.523Z,83.90
2023-10-09T20:13:56.660Z,83.70
2023-10-09T20:16:27.631Z,83.90
2023-10-09T20:18:56.399Z,83.90
2023-10-09T20:21:26.135Z,83.90
2023-10-09T20:23:54.355Z,83.90
2023-10-09T20:26:24.064Z,83.90
2023-10-09T20:28:52.327Z,83.90
2023-10-09T20:31:21.621Z,83.90
2023-10-09T20:33:52.031Z,83.90
2023-10-09T20:36:20.645Z,83.90
2023-10-09T20:38:50.585Z,83.90
2023-10-09T20:41:19.205Z,83.90
2023-10-09T20:43:48.579Z,83.90
2023-10-09T20:46:17.516Z,83.90
2023-10-09T20:48:46.582Z,83.90
2023-10-09T20:51:16.240Z,83.90
2023-10-09T20:53:44.788Z,83.90
2023-10-09T20:56:14.593Z,83.90
2023-10-09T20:58:44.160Z,83.90
2023-10-09T21:01:16.367Z,83.90
2023-10-09T21:03:48.974Z,83.90
2023-10-09T21:06:22.010Z,83.90
2023-10-09T21:08:50.436Z,83.90
2023-10-09T21:11:20.351Z,83.90
2023-10-09T21:13:48.818Z,83.90
2023-10-09T21:16:17.602Z,83.90
2023-10-09T21:18:46.488Z,83.90
2023-10-09T21:21:15.247Z,83.90
2023-10-09T21:23:43.608Z,83.90
2023-10-09T21:26:22.231Z,83.90
2023-10-09T21:28:51.130Z,83.90
2023-10-09T21:31:19.875Z,83.90
2023-10-09T21:33:50.615Z,83.90
2023-10-09T21:36:19.456Z,83.90
2023-10-09T21:38:47.705Z,83.90
2023-10-09T21:41:23.571Z,84.00
2023-10-09T21:43:54.918Z,83.90
2023-10-09T21:46:26.510Z,83.90
2023-10-09T21:48:55.135Z,84.00
2023-10-09T21:51:23.223Z,83.90
2023-10-09T21:53:51.751Z,83.90
2023-10-09T21:56:21.302Z,84.00
2023-10-09T22:01:35.186Z,84.00
2023-10-09T22:04:06.730Z,84.00
2023-10-09T22:06:35.298Z,84.00
2023-10-09T22:09:03.404Z,84.00
2023-10-09T22:11:31.569Z,84.00
2023-10-09T22:14:01.112Z,84.00
2023-10-09T22:16:29.271Z,84.00
2023-10-09T22:19:13.485Z,84.00
2023-10-09T22:21:43.253Z,84.00
2023-10-09T22:24:19.140Z,84.00
2023-10-09T22:26:48.873Z,84.00
2023-10-09T22:29:19.843Z,84.00
2023-10-09T22:31:48.723Z,84.00
2023-10-09T22:34:20.990Z,84.00
2023-10-09T22:39:26.424Z,84.00
2023-10-09T22:41:55.707Z,84.00
2023-10-09T22:44:26.380Z,84.00
2023-10-09T22:46:56.902Z,84.00
2023-10-09T22:52:16.156Z,84.00
2023-10-09T22:54:46.571Z,84.00
2023-10-09T22:57:15.122Z,84.00
2023-10-09T22:59:51.698Z,84.00
2023-10-09T23:02:40.092Z,84.00
2023-10-09T23:05:13.928Z,84.10
2023-10-09T23:07:45.250Z,84.00
2023-10-09T23:10:21.054Z,84.00
2023-10-09T23:12:50.034Z,84.10
2023-10-09T23:15:35.015Z,84.00
2023-10-09T23:18:10.830Z,84.10
2023-10-09T23:20:50.014Z,84.10
2023-10-09T23:23:26.062Z,84.10
2023-10-09T23:25:55.318Z,84.10
2023-10-09T23:28:38.996Z,84.10
2023-10-09T23:31:23.464Z,84.10
2023-10-09T23:33:53.683Z,84.10
2023-10-09T23:36:27.375Z,84.10
2023-10-09T23:39:15.077Z,84.10
2023-10-09T23:41:59.668Z,84.10
2023-10-09T23:44:35.426Z,84.10
2023-10-09T23:47:10.848Z,84.10
2023-10-09T23:49:39.912Z,84.10
2023-10-09T23:52:08.980Z,84.10
2023-10-09T23:54:37.874Z,84.10
2023-10-09T23:57:13.197Z,84.10
2023-10-09T23:59:41.490Z,84.10
